Time;durP1;ratioP1;P1;durP2;ratioP2;P2;SDS_P1;SDS_P2;PMS_P1;PMS_P2;Temp;Humidity;BMP_temperature;BMP_pressure;BME280_temperature;BME280_humidity;BME280_pressure;Samples;Min_cycle;Max_cycle;Signal;HPM_P1;HPM_P2
2022/09/05 00:00:11;;;;;;;8.23;4.20;;;18.60;99.90;;;;;;5041331;28;20029;-55
2022/09/05 00:03:01;;;;;;;7.80;4.13;;;18.60;99.90;;;;;;5046620;28;20040;-55
2022/09/05 00:06:04;;;;;;;8.65;4.13;;;18.50;99.90;;;;;;5041522;28;21036;-54
2022/09/05 00:08:51;;;;;;;6.05;4.47;;;18.50;99.90;;;;;;5055056;28;20044;-55
2022/09/05 00:11:35;;;;;;;7.70;4.82;;;18.50;99.90;;;;;;5055010;28;20041;-54
2022/09/05 00:14:22;;;;;;;6.97;4.57;;;18.50;99.90;;;;;;5057663;28;20036;-53
2022/09/05 00:16:57;;;;;;;6.22;4.50;;;18.50;99.90;;;;;;5062151;28;20096;-55
2022/09/05 00:19:50;;;;;;;6.88;4.82;;;18.40;99.90;;;;;;5061351;27;20028;-54
2022/09/05 00:22:25;;;;;;;7.67;4.83;;;18.40;99.90;;;;;;5058509;28;20128;-55
2022/09/05 00:25:14;;;;;;;12.90;4.95;;;18.40;99.90;;;;;;5064972;28;20274;-56
2022/09/05 00:28:00;;;;;;;7.00;4.70;;;18.40;99.90;;;;;;5064630;28;20033;-55
2022/09/05 00:30:31;;;;;;;9.45;4.90;;;18.50;99.90;;;;;;5067978;28;20120;-55
2022/09/05 00:33:23;;;;;;;8.75;5.60;;;18.40;99.90;;;;;;5063431;28;20743;-53
2022/09/05 00:36:11;;;;;;;11.85;6.03;;;18.40;99.90;;;;;;5062244;28;20036;-54
2022/09/05 00:38:40;;;;;;;7.63;5.40;;;18.40;99.90;;;;;;5060544;28;20047;-54
2022/09/05 00:41:12;;;;;;;8.07;5.28;;;18.20;99.90;;;;;;5073815;27;20039;-54
2022/09/05 00:43:43;;;;;;;9.40;5.30;;;18.20;99.90;;;;;;5066631;28;20040;-54
2022/09/05 00:46:28;;;;;;;7.28;5.28;;;18.20;99.90;;;;;;5075045;27;20448;-55
2022/09/05 00:49:33;;;;;;;6.13;4.82;;;18.20;99.90;;;;;;5072485;28;20060;-54
2022/09/05 00:52:23;;;;;;;7.28;5.07;;;18.10;99.90;;;;;;5042718;28;20098;-54
2022/09/05 00:55:09;;;;;;;8.95;5.10;;;18.00;99.90;;;;;;5041603;28;20123;-52
2022/09/05 00:58:07;;;;;;;6.13;4.88;;;18.00;99.90;;;;;;5041798;28;20403;-54
2022/09/05 01:00:36;;;;;;;6.88;5.15;;;18.10;99.90;;;;;;5045638;28;20174;-54
2022/09/05 01:03:21;;;;;;;9.13;4.80;;;18.00;99.90;;;;;;5062256;28;20037;-55
2022/09/05 01:06:05;;;;;;;7.75;4.93;;;18.00;99.90;;;;;;5058185;28;20036;-55
2022/09/05 01:08:59;;;;;;;6.18;5.05;;;18.00;99.90;;;;;;5039556;28;20706;-53
2022/09/05 01:11:36;;;;;;;7.35;5.25;;;17.90;99.90;;;;;;5042971;28;20060;-52
2022/09/05 01:14:26;;;;;;;8.75;5.00;;;17.90;99.90;;;;;;5042591;28;20032;-54
2022/09/05 01:17:25;;;;;;;6.22;4.82;;;17.90;99.90;;;;;;5038537;28;20044;-53
2022/09/05 01:20:15;;;;;;;7.13;5.10;;;17.80;99.90;;;;;;5040166;28;20035;-55
2022/09/05 01:23:01;;;;;;;7.82;5.13;;;17.80;99.90;;;;;;5050589;28;20043;-52
2022/09/05 01:25:57;;;;;;;6.63;4.50;;;17.80;99.90;;;;;;5048405;28;20040;-54
2022/09/05 01:28:45;;;;;;;8.80;4.78;;;17.80;99.90;;;;;;5058491;28;20052;-55
2022/09/05 01:31:27;;;;;;;5.60;4.63;;;17.80;99.90;;;;;;5037395;28;20041;-52
2022/09/05 01:34:19;;;;;;;7.28;4.97;;;17.70;99.90;;;;;;5065022;28;20479;-55
2022/09/05 01:36:52;;;;;;;6.30;4.72;;;17.70;99.90;;;;;;5065017;28;20045;-55
2022/09/05 01:39:39;;;;;;;6.93;4.65;;;17.70;99.90;;;;;;5063509;28;20041;-55
2022/09/05 01:42:11;;;;;;;7.82;4.80;;;17.70;99.90;;;;;;5057220;28;20040;-53
2022/09/05 01:44:47;;;;;;;7.22;4.93;;;17.70;99.90;;;;;;5063241;28;20044;-54
2022/09/05 01:47:26;;;;;;;9.48;4.45;;;17.60;99.90;;;;;;5060891;28;20567;-53
2022/09/05 01:50:13;;;;;;;6.88;4.75;;;17.60;99.90;;;;;;5060781;28;20032;-55
2022/09/05 01:52:56;;;;;;;7.47;4.22;;;17.60;99.90;;;;;;5071223;28;20108;-54
2022/09/05 01:55:50;;;;;;;7.00;4.57;;;17.60;99.90;;;;;;5063410;28;20197;-54
2022/09/05 01:58:25;;;;;;;7.00;4.50;;;17.60;99.90;;;;;;5064361;28;20020;-55
2022/09/05 02:01:23;;;;;;;10.38;4.88;;;17.50;99.90;;;;;;5061229;28;20037;-54
2022/09/05 02:04:25;;;;;;;7.20;4.57;;;17.50;99.90;;;;;;5058247;28;20052;-55
2022/09/05 02:07:28;;;;;;;8.45;4.60;;;17.40;99.90;;;;;;5058662;28;20036;-55
2022/09/05 02:10:28;;;;;;;5.55;4.78;;;17.50;99.90;;;;;;5043467;28;20033;-54
2022/09/05 02:13:14;;;;;;;10.95;4.97;;;17.60;99.90;;;;;;5044630;28;20082;-55
2022/09/05 02:16:05;;;;;;;10.13;4.70;;;17.60;99.90;;;;;;5042332;28;20033;-54
2022/09/05 02:18:57;;;;;;;4.88;4.10;;;17.50;99.90;;;;;;5044704;28;20123;-55
2022/09/05 02:21:32;;;;;;;5.82;4.57;;;17.40;99.90;;;;;;5040124;28;20453;-54
2022/09/05 02:24:12;;;;;;;8.35;4.50;;;17.50;99.90;;;;;;5044122;28;20627;-55
2022/09/05 02:26:40;;;;;;;8.25;4.68;;;17.50;99.90;;;;;;5047904;28;20599;-53
2022/09/05 02:29:15;;;;;;;5.07;4.00;;;17.50;99.90;;;;;;5043555;28;20037;-54
2022/09/05 02:31:50;;;;;;;5.93;4.43;;;17.40;99.90;;;;;;5036761;28;20970;-54
2022/09/05 02:34:33;;;;;;;6.88;4.72;;;17.40;99.90;;;;;;5046774;28;20507;-53
2022/09/05 02:37:17;;;;;;;6.25;4.50;;;17.60;99.90;;;;;;5046829;28;20047;-55
2022/09/05 02:40:00;;;;;;;6.18;4.40;;;17.50;99.90;;;;;;5041847;28;20064;-55
2022/09/05 02:42:44;;;;;;;4.93;4.43;;;17.40;99.90;;;;;;5037656;28;20040;-54
2022/09/05 02:45:31;;;;;;;6.40;4.47;;;17.40;99.90;;;;;;5047043;28;20044;-53
2022/09/05 02:48:09;;;;;;;5.28;4.40;;;17.40;99.90;;;;;;5048568;28;20120;-52
2022/09/05 02:50:47;;;;;;;6.55;4.20;;;17.30;99.90;;;;;;5046882;28;20032;-54
2022/09/05 02:53:16;;;;;;;6.32;4.00;;;17.20;99.90;;;;;;5043312;28;20037;-53
2022/09/05 02:55:50;;;;;;;6.60;4.03;;;17.20;99.90;;;;;;5044214;28;20039;-53
2022/09/05 02:58:41;;;;;;;9.75;4.30;;;17.20;99.90;;;;;;5048540;28;20512;-54
2022/09/05 03:01:39;;;;;;;5.05;4.00;;;17.20;99.90;;;;;;5050381;28;20423;-55
2022/09/05 03:04:22;;;;;;;5.47;3.83;;;17.20;99.90;;;;;;5029577;28;20053;-52
2022/09/05 03:07:12;;;;;;;4.38;3.70;;;17.20;99.90;;;;;;5041789;28;20065;-54
2022/09/05 03:10:01;;;;;;;4.75;4.07;;;17.10;99.90;;;;;;5040086;28;20032;-53
2022/09/05 03:13:10;;;;;;;5.18;4.05;;;17.10;99.90;;;;;;5033302;28;20064;-54
2022/09/05 03:16:18;;;;;;;6.68;4.55;;;17.20;99.90;;;;;;5044935;28;20083;-54
2022/09/05 03:19:25;;;;;;;5.78;4.22;;;17.20;99.90;;;;;;5046096;28;20056;-54
2022/09/05 03:22:08;;;;;;;5.47;3.92;;;17.20;99.90;;;;;;5040295;28;20052;-53
2022/09/05 03:25:11;;;;;;;6.32;4.20;;;17.10;99.90;;;;;;5049516;28;20116;-54
2022/09/05 03:28:04;;;;;;;5.07;4.13;;;17.10;99.90;;;;;;5051016;28;20025;-55
2022/09/05 03:31:00;;;;;;;6.45;4.22;;;17.10;99.90;;;;;;5045267;28;20562;-52
2022/09/05 03:33:57;;;;;;;6.63;4.40;;;17.10;99.90;;;;;;5041751;28;20395;-53
2022/09/05 03:36:45;;;;;;;5.95;4.20;;;17.10;99.90;;;;;;5040003;28;20029;-55
2022/09/05 03:39:29;;;;;;;5.70;3.85;;;17.10;99.90;;;;;;5047305;28;20463;-53
2022/09/05 03:42:17;;;;;;;4.28;3.85;;;17.20;99.90;;;;;;5038275;28;20097;-55
2022/09/05 03:45:16;;;;;;;6.05;4.05;;;17.30;99.90;;;;;;5042615;28;20872;-55
2022/09/05 03:48:16;;;;;;;5.63;4.03;;;17.20;99.90;;;;;;5045606;28;20037;-55
2022/09/05 03:51:04;;;;;;;5.82;4.15;;;17.20;99.90;;;;;;5041948;28;20025;-53
2022/09/05 03:53:51;;;;;;;4.68;3.88;;;17.10;99.90;;;;;;5047473;28;20094;-53
2022/09/05 03:56:55;;;;;;;5.20;3.90;;;17.00;99.90;;;;;;5043034;28;20460;-54
2022/09/05 04:00:03;;;;;;;4.30;3.73;;;16.90;99.90;;;;;;5051237;28;20496;-54
2022/09/05 04:02:32;;;;;;;5.28;4.00;;;16.90;99.90;;;;;;5026158;28;20618;-53
2022/09/05 04:05:07;;;;;;;6.00;4.18;;;16.90;99.90;;;;;;5042525;28;20090;-55
2022/09/05 04:07:42;;;;;;;6.03;3.90;;;16.90;99.90;;;;;;5042856;28;20029;-54
2022/09/05 04:10:20;;;;;;;5.45;3.80;;;16.90;99.90;;;;;;5046927;28;20033;-54
2022/09/05 04:12:52;;;;;;;4.90;3.67;;;16.90;99.90;;;;;;5051116;28;20496;-53
2022/09/05 04:15:47;;;;;;;4.78;3.60;;;16.90;99.90;;;;;;5046517;28;20127;-55
2022/09/05 04:18:18;;;;;;;6.43;3.58;;;17.10;99.90;;;;;;5041779;28;20040;-53
2022/09/05 04:20:50;;;;;;;5.18;4.35;;;17.00;99.90;;;;;;5045435;28;20438;-54
2022/09/05 04:23:25;;;;;;;5.78;3.67;;;17.00;99.90;;;;;;5041286;28;20119;-53
2022/09/05 04:26:09;;;;;;;6.95;3.95;;;16.90;99.90;;;;;;5055686;28;20063;-54
2022/09/05 04:29:06;;;;;;;6.63;4.22;;;16.90;99.90;;;;;;5049879;28;20155;-55
2022/09/05 04:31:49;;;;;;;5.15;3.90;;;16.90;99.90;;;;;;5044698;28;20067;-54
2022/09/05 04:34:25;;;;;;;6.90;3.85;;;16.90;99.90;;;;;;5041850;28;20505;-53
2022/09/05 04:37:03;;;;;;;5.55;3.83;;;16.80;99.90;;;;;;5049171;28;20463;-55
2022/09/05 04:39:30;;;;;;;6.18;3.97;;;16.80;99.90;;;;;;5052501;28;20060;-55
2022/09/05 04:42:16;;;;;;;5.57;3.95;;;16.80;99.90;;;;;;5044263;28;20041;-54
2022/09/05 04:45:08;;;;;;;6.15;4.10;;;16.80;99.90;;;;;;5044816;28;20118;-53
2022/09/05 04:47:38;;;;;;;6.07;3.85;;;16.70;99.90;;;;;;5049248;28;20527;-55
2022/09/05 04:50:16;;;;;;;6.45;4.20;;;16.70;99.90;;;;;;5050493;28;20215;-55
2022/09/05 04:52:57;;;;;;;7.55;3.92;;;16.60;99.90;;;;;;5047304;28;20037;-55
2022/09/05 04:55:44;;;;;;;8.13;4.00;;;16.70;99.90;;;;;;5044457;28;20036;-53
2022/09/05 04:58:21;;;;;;;5.72;4.03;;;16.70;99.90;;;;;;5040753;28;20037;-54
2022/09/05 05:00:56;;;;;;;5.35;4.20;;;16.70;99.90;;;;;;5049675;28;20037;-55
2022/09/05 05:03:28;;;;;;;4.38;3.83;;;16.70;99.90;;;;;;5047376;28;20051;-55
2022/09/05 05:05:59;;;;;;;6.80;4.22;;;16.70;99.90;;;;;;5039123;28;20037;-54
2022/09/05 05:08:48;;;;;;;6.85;4.20;;;16.70;99.90;;;;;;5040373;28;20037;-53
2022/09/05 05:11:21;;;;;;;6.93;4.03;;;16.70;99.90;;;;;;5041533;28;20499;-55
2022/09/05 05:14:15;;;;;;;6.35;4.32;;;16.80;99.90;;;;;;5038368;28;20451;-54
2022/09/05 05:16:47;;;;;;;9.23;4.20;;;16.80;99.90;;;;;;5038334;28;20104;-55
2022/09/05 05:19:25;;;;;;;6.82;4.07;;;16.70;99.90;;;;;;5045502;28;20041;-54
2022/09/05 05:21:56;;;;;;;6.60;4.00;;;16.70;99.90;;;;;;5053367;28;20534;-55
2022/09/05 05:24:33;;;;;;;7.07;4.20;;;16.70;99.90;;;;;;5042399;28;20040;-55
2022/09/05 05:27:11;;;;;;;8.48;4.22;;;16.70;99.90;;;;;;5044679;28;20562;-53
2022/09/05 05:30:06;;;;;;;9.38;4.38;;;16.80;99.90;;;;;;5048800;28;20025;-55
2022/09/05 05:32:45;;;;;;;6.57;4.25;;;16.80;99.90;;;;;;5043937;28;20103;-54
2022/09/05 05:35:14;;;;;;;5.60;3.95;;;16.80;99.90;;;;;;5047080;28;20317;-55
2022/09/05 05:37:48;;;;;;;6.57;4.20;;;16.80;99.90;;;;;;5040698;28;20040;-54
2022/09/05 05:40:16;;;;;;;5.82;4.32;;;16.90;99.90;;;;;;5051762;28;20072;-53
2022/09/05 05:42:44;;;;;;;6.72;3.88;;;16.90;99.90;;;;;;5044046;28;20427;-54
2022/09/05 05:45:31;;;;;;;4.85;4.25;;;16.90;99.90;;;;;;5041336;28;20127;-55
2022/09/05 05:48:11;;;;;;;5.70;3.95;;;17.10;99.90;;;;;;5047752;28;20463;-54
2022/09/05 05:51:08;;;;;;;9.15;4.25;;;17.10;99.90;;;;;;5047917;28;20116;-55
2022/09/05 05:53:42;;;;;;;11.27;4.80;;;17.10;99.90;;;;;;5047835;28;20510;-54
2022/09/05 05:56:34;;;;;;;9.07;4.82;;;17.20;99.90;;;;;;5048495;28;20053;-53
2022/09/05 05:59:10;;;;;;;10.30;4.32;;;17.30;99.90;;;;;;5043389;28;20123;-55
2022/09/05 06:01:53;;;;;;;8.10;4.57;;;17.40;99.90;;;;;;5047551;28;20060;-55
2022/09/05 06:04:51;;;;;;;14.88;4.40;;;17.50;99.90;;;;;;5054264;28;20082;-54
2022/09/05 06:07:36;;;;;;;8.18;5.10;;;17.60;99.90;;;;;;5041005;28;20455;-55
2022/09/05 06:10:07;;;;;;;7.80;4.50;;;17.70;99.90;;;;;;5044032;28;20033;-58
2022/09/05 06:13:10;;;;;;;11.98;5.13;;;17.70;99.90;;;;;;5041240;28;20079;-58
2022/09/05 06:16:09;;;;;;;10.82;4.80;;;18.00;99.90;;;;;;5042689;28;20032;-57
2022/09/05 06:18:35;;;;;;;10.93;4.40;;;;;;;;;;5056639;28;20075;-58
2022/09/05 06:21:27;;;;;;;9.35;4.50;;;18.20;99.90;;;;;;5039801;28;20733;-56
2022/09/05 06:24:11;;;;;;;8.18;3.78;;;18.40;99.90;;;;;;5037591;28;20033;-58
2022/09/05 06:27:10;;;;;;;7.82;4.13;;;18.50;99.90;;;;;;5041629;28;20033;-57
2022/09/05 06:29:58;;;;;;;5.63;3.70;;;18.60;99.90;;;;;;5043304;28;20676;-56
2022/09/05 06:33:08;;;;;;;101.97;83.40;;;18.80;99.90;;;;;;5039757;28;21596;-58
2022/09/05 06:35:52;;;;;;;30.42;24.20;;;18.80;99.90;;;;;;4962607;28;20453;-57
2022/09/05 06:38:36;;;;;;;7.18;4.80;;;19.60;99.90;;;;;;5042424;28;20549;-57
2022/09/05 06:41:04;;;;;;;11.80;4.05;;;19.20;99.90;;;;;;5038479;28;20510;-56
2022/09/05 06:43:57;;;;;;;5.93;3.40;;;19.10;99.90;;;;;;5043958;28;20735;-56
2022/09/05 06:46:37;;;;;;;6.10;3.40;;;19.30;99.90;;;;;;5042123;28;20095;-57
2022/09/05 06:49:27;;;;;;;6.15;3.25;;;19.40;99.90;;;;;;5043087;28;20473;-57
2022/09/05 06:51:59;;;;;;;4.20;3.10;;;19.50;99.90;;;;;;5045093;28;20033;-56
2022/09/05 06:55:02;;;;;;;10.02;3.10;;;19.70;99.90;;;;;;5052571;28;20029;-57
2022/09/05 06:57:51;;;;;;;4.17;2.83;;;19.90;99.90;;;;;;5061940;28;20499;-57
2022/09/05 07:00:23;;;;;;;6.30;3.60;;;20.00;99.90;;;;;;5034378;28;20286;-57
2022/09/05 07:03:12;;;;;;;8.07;2.90;;;20.00;99.90;;;;;;5065506;27;20445;-57
2022/09/05 07:05:56;;;;;;;6.25;3.10;;;20.10;99.90;;;;;;5066846;28;20039;-56
2022/09/05 07:08:29;;;;;;;5.45;2.80;;;20.20;99.90;;;;;;5059772;28;20044;-56
2022/09/05 07:11:06;;;;;;;5.05;2.97;;;20.30;99.90;;;;;;5062043;28;20089;-57
2022/09/05 07:13:51;;;;;;;5.70;2.90;;;20.40;99.90;;;;;;5042811;28;20040;-58
2022/09/05 07:16:52;;;;;;;3.95;2.83;;;20.50;99.90;;;;;;5045312;28;20048;-56
2022/09/05 07:19:43;;;;;;;4.82;2.50;;;20.60;99.90;;;;;;5040617;28;20487;-58
2022/09/05 07:22:40;;;;;;;5.25;2.78;;;20.80;99.90;;;;;;5039845;28;20041;-57
2022/09/05 07:25:12;;;;;;;9.75;3.25;;;20.90;99.90;;;;;;5051039;28;20418;-57
2022/09/05 07:27:57;;;;;;;5.57;2.67;;;21.00;99.90;;;;;;5043877;28;20032;-59
2022/09/05 07:30:23;;;;;;;5.50;3.10;;;21.00;99.90;;;;;;5040356;28;20399;-58
2022/09/05 07:32:55;;;;;;;4.13;2.67;;;21.00;99.90;;;;;;5044378;28;20124;-58
2022/09/05 07:35:28;;;;;;;4.82;2.50;;;21.10;99.90;;;;;;5040375;28;20469;-58
2022/09/05 07:38:15;;;;;;;3.50;2.47;;;21.20;99.90;;;;;;5041901;28;20664;-58
2022/09/05 07:41:09;;;;;;;6.28;2.70;;;21.30;99.90;;;;;;5044772;28;20032;-58
2022/09/05 07:43:42;;;;;;;7.32;2.75;;;21.40;99.90;;;;;;5036912;28;20084;-56
2022/09/05 07:46:24;;;;;;;7.68;2.80;;;21.50;99.90;;;;;;5036954;28;20037;-59
2022/09/05 07:49:01;;;;;;;6.50;2.53;;;21.60;99.90;;;;;;5039157;28;20037;-57
2022/09/05 07:51:33;;;;;;;7.90;2.95;;;21.70;99.90;;;;;;5041886;28;20110;-58
2022/09/05 07:54:19;;;;;;;7.70;2.75;;;21.80;99.90;;;;;;5048124;28;20515;-57
2022/09/05 07:56:54;;;;;;;12.98;9.98;;;21.80;99.90;;;;;;5046759;28;20033;-58
2022/09/05 07:59:22;;;;;;;20.90;9.27;;;22.00;99.90;;;;;;5052142;28;20025;-59
2022/09/05 08:01:51;;;;;;;6.18;3.03;;;22.00;99.90;;;;;;5051162;28;20029;-58
2022/09/05 08:04:30;;;;;;;9.57;2.88;;;22.10;99.90;;;;;;5043911;28;20521;-58
2022/09/05 08:07:01;;;;;;;6.45;2.88;;;22.10;99.90;;;;;;5046658;28;20029;-57
2022/09/05 08:09:38;;;;;;;3.65;2.80;;;22.30;99.90;;;;;;5048921;28;20037;-58
2022/09/05 08:12:19;;;;;;;6.38;2.80;;;22.40;99.90;;;;;;5044716;28;20041;-59
2022/09/05 08:15:04;;;;;;;6.47;3.03;;;22.40;99.90;;;;;;5043850;28;20037;-58
2022/09/05 08:17:31;;;;;;;7.85;3.00;;;22.40;99.90;;;;;;5045528;28;20584;-58
2022/09/05 08:20:14;;;;;;;6.80;2.90;;;22.50;99.90;;;;;;5041961;28;20045;-59
2022/09/05 08:23:02;;;;;;;12.70;3.40;;;22.60;99.90;;;;;;5053980;28;20399;-58
2022/09/05 08:25:35;;;;;;;8.05;3.17;;;22.60;99.90;;;;;;5044306;28;20098;-58
2022/09/05 08:28:05;;;;;;;7.45;2.85;;;22.70;99.90;;;;;;5043856;28;20379;-59
2022/09/05 08:30:43;;;;;;;7.00;3.10;;;22.80;99.90;;;;;;5041313;28;20217;-59
2022/09/05 08:33:23;;;;;;;9.18;3.22;;;22.80;99.90;;;;;;5054502;28;20037;-59
2022/09/05 08:35:58;;;;;;;7.80;3.53;;;22.90;99.90;;;;;;5049485;28;20056;-58
2022/09/05 08:38:26;;;;;;;6.80;2.67;;;23.10;99.90;;;;;;5039539;28;20061;-59
2022/09/05 08:41:14;;;;;;;3.45;2.50;;;23.20;99.90;;;;;;5046462;28;20646;-58
2022/09/05 08:44:00;;;;;;;5.78;2.45;;;23.30;99.90;;;;;;5045388;28;20033;-59
2022/09/05 08:46:33;;;;;;;3.88;2.47;;;23.30;99.90;;;;;;5043573;28;20059;-59
2022/09/05 08:49:19;;;;;;;4.88;2.88;;;23.50;99.90;;;;;;5046675;28;20478;-59
2022/09/05 08:52:01;;;;;;;6.20;2.53;;;23.50;99.90;;;;;;5042802;28;20052;-59
2022/09/05 08:54:33;;;;;;;5.28;2.65;;;23.50;99.90;;;;;;5051157;28;20042;-59
2022/09/05 08:57:42;;;;;;;4.43;2.60;;;23.60;99.90;;;;;;5044719;28;20134;-59
2022/09/05 09:00:10;;;;;;;4.53;2.60;;;23.80;99.90;;;;;;5037905;28;20033;-58
2022/09/05 09:02:57;;;;;;;8.25;2.38;;;23.90;99.90;;;;;;5044804;28;20561;-58
2022/09/05 09:05:26;;;;;;;6.40;2.58;;;23.90;99.90;;;;;;5044266;28;20479;-59
2022/09/05 09:08:30;;;;;;;5.00;2.50;;;23.90;99.90;;;;;;5037485;28;20488;-59
2022/09/05 09:11:03;;;;;;;6.40;2.67;;;23.90;99.90;;;;;;5035999;28;20032;-60
2022/09/05 09:13:51;;;;;;;8.80;2.47;;;24.00;99.90;;;;;;5041407;28;20044;-59
2022/09/05 09:16:49;;;;;;;4.53;2.45;;;24.10;99.90;;;;;;5039600;28;20060;-58
2022/09/05 09:19:24;;;;;;;7.13;2.40;;;24.30;99.90;;;;;;5030335;28;20123;-59
2022/09/05 09:22:21;;;;;;;7.93;2.50;;;24.30;99.90;;;;;;5040289;28;20492;-59
2022/09/05 09:25:15;;;;;;;4.40;2.20;;;24.40;99.90;;;;;;5042512;28;20053;-59
2022/09/05 09:27:44;;;;;;;7.70;2.45;;;24.50;99.90;;;;;;5016590;28;20048;-58
2022/09/05 09:30:12;;;;;;;9.25;2.30;;;24.60;99.90;;;;;;5042246;28;20391;-59
2022/09/05 09:32:44;;;;;;;4.10;2.10;;;24.70;99.90;;;;;;5039877;28;20362;-59
2022/09/05 09:35:34;;;;;;;5.93;2.47;;;24.70;99.90;;;;;;5034243;28;20052;-60
2022/09/05 09:38:24;;;;;;;6.13;2.78;;;24.70;99.90;;;;;;5044285;28;20033;-59
2022/09/05 09:41:22;;;;;;;6.28;1.98;;;24.90;99.90;;;;;;5049328;28;20037;-59
2022/09/05 09:44:07;;;;;;;4.90;2.30;;;24.90;99.90;;;;;;5043041;28;20079;-58
2022/09/05 09:46:45;;;;;;;3.30;1.95;;;25.10;99.90;;;;;;5038826;28;20045;-59
2022/09/05 09:49:32;;;;;;;5.03;2.42;;;25.10;99.90;;;;;;5046126;28;20487;-59
2022/09/05 09:52:28;;;;;;;5.40;2.17;;;25.00;99.90;;;;;;5041543;28;20542;-59
2022/09/05 09:55:40;;;;;;;7.47;2.30;;;25.10;99.90;;;;;;5047793;28;20582;-60
2022/09/05 09:58:36;;;;;;;8.45;2.17;;;25.20;99.90;;;;;;5037163;28;20025;-59
2022/09/05 10:01:13;;;;;;;13.82;7.10;;;25.30;99.90;;;;;;5039817;28;20116;-60
2022/09/05 10:04:13;;;;;;;15.75;12.52;;;25.50;99.90;;;;;;5040787;28;20029;-58
2022/09/05 10:07:11;;;;;;;6.45;2.75;;;25.40;99.90;;;;;;5041083;28;20048;-59
2022/09/05 10:10:04;;;;;;;7.68;2.25;;;25.50;99.90;;;;;;5021833;28;20036;-59
2022/09/05 10:12:38;;;;;;;6.47;1.85;;;25.40;99.90;;;;;;5043646;28;20074;-58
2022/09/05 10:15:25;;;;;;;7.40;2.10;;;25.70;99.90;;;;;;5042538;28;20060;-59
2022/09/05 10:18:26;;;;;;;6.05;2.50;;;25.70;99.90;;;;;;5042155;28;20094;-60
2022/09/05 10:21:24;;;;;;;4.28;2.05;;;25.70;99.90;;;;;;4956237;28;20062;-59
2022/09/05 10:24:14;;;;;;;4.15;2.00;;;25.70;99.90;;;;;;5031242;28;20496;-58
2022/09/05 10:27:06;;;;;;;8.55;2.10;;;25.70;99.90;;;;;;5047489;28;20033;-59
2022/09/05 10:29:43;;;;;;;7.63;2.22;;;25.70;99.90;;;;;;5018314;28;20044;-60
2022/09/05 10:32:15;;;;;;;4.47;2.00;;;25.90;99.90;;;;;;5048324;28;20037;-60
2022/09/05 10:34:58;;;;;;;6.50;2.10;;;25.90;99.90;;;;;;5042656;28;20115;-59
2022/09/05 10:37:40;;;;;;;6.30;2.07;;;26.00;99.90;;;;;;5044640;28;20095;-60
2022/09/05 10:40:20;;;;;;;5.82;2.30;;;26.00;99.90;;;;;;5039667;28;20033;-58
2022/09/05 10:42:48;;;;;;;6.43;2.78;;;26.30;99.90;;;;;;5045455;28;20493;-59
2022/09/05 10:45:32;;;;;;;5.40;1.95;;;26.10;99.90;;;;;;5048444;28;20036;-60
2022/09/05 10:48:16;;;;;;;5.55;2.33;;;26.20;99.90;;;;;;5058127;28;20563;-59
2022/09/05 10:50:48;;;;;;;5.50;2.22;;;26.30;99.90;;;;;;5046768;28;20028;-59
2022/09/05 10:53:43;;;;;;;3.78;1.85;;;26.40;99.90;;;;;;5043589;28;20033;-59
2022/09/05 10:56:21;;;;;;;8.00;2.30;;;26.40;99.90;;;;;;5040343;28;20119;-59
2022/09/05 10:59:00;;;;;;;4.75;1.95;;;26.30;99.90;;;;;;5046694;28;20620;-59
2022/09/05 11:01:40;;;;;;;2.88;1.70;;;26.30;99.90;;;;;;5041437;28;20059;-59
2022/09/05 11:04:38;;;;;;;4.50;1.50;;;26.40;99.90;;;;;;5047870;28;20480;-59
2022/09/05 11:07:23;;;;;;;5.32;1.50;;;26.50;99.90;;;;;;5039160;28;20400;-59
2022/09/05 11:10:00;;;;;;;5.18;1.60;;;26.60;99.90;;;;;;5044849;28;20024;-59
2022/09/05 11:12:57;;;;;;;4.85;1.90;;;26.80;99.90;;;;;;5040613;28;20496;-59
2022/09/05 11:15:48;;;;;;;3.30;1.60;;;26.70;99.90;;;;;;5035805;28;20063;-60
2022/09/05 11:18:17;;;;;;;3.70;1.40;;;26.70;99.90;;;;;;5048590;28;20035;-60
2022/09/05 11:21:07;;;;;;;2.83;1.60;;;26.70;99.90;;;;;;5044003;28;20043;-59
2022/09/05 11:23:42;;;;;;;5.43;1.75;;;26.70;99.90;;;;;;5037274;28;20345;-60
2022/09/05 11:26:36;;;;;;;4.10;1.50;;;26.60;99.90;;;;;;5045754;28;20127;-59
2022/09/05 11:29:13;;;;;;;2.50;1.70;;;26.60;99.90;;;;;;5041018;28;20440;-60
2022/09/05 11:32:02;;;;;;;3.92;1.60;;;26.60;99.90;;;;;;5046201;28;20192;-60
2022/09/05 11:35:01;;;;;;;4.80;1.70;;;26.70;99.90;;;;;;5035575;28;20017;-59
2022/09/05 11:37:57;;;;;;;3.00;1.52;;;26.70;99.90;;;;;;5043086;28;20033;-58
2022/09/05 11:40:28;;;;;;;2.88;1.52;;;26.70;99.90;;;;;;5047025;28;20032;-58
2022/09/05 11:43:36;;;;;;;3.22;1.52;;;27.20;99.90;;;;;;5041567;28;20044;-58
2022/09/05 11:46:42;;;;;;;2.40;1.50;;;27.10;99.90;;;;;;5039569;28;20025;-60
2022/09/05 11:49:28;;;;;;;3.47;1.60;;;26.80;99.90;;;;;;5037013;28;20044;-59
2022/09/05 11:52:03;;;;;;;3.58;1.30;;;26.90;99.90;;;;;;5040696;28;20063;-60
2022/09/05 11:55:07;;;;;;;3.33;1.55;;;26.90;99.90;;;;;;5049492;28;20463;-60
2022/09/05 11:57:41;;;;;;;;;;;26.80;99.90;;;;;;5050266;28;20080;-59
2022/09/05 12:00:40;;;;;;;3.03;1.50;;;26.90;99.90;;;;;;5046394;28;19917;-60
2022/09/05 12:03:44;;;;;;;2.33;1.27;;;26.80;99.90;;;;;;5042440;28;20087;-59
2022/09/05 12:06:28;;;;;;;2.60;1.58;;;26.70;99.90;;;;;;5037360;28;20442;-59
2022/09/05 12:09:19;;;;;;;3.78;1.42;;;26.80;99.90;;;;;;5043812;28;20036;-58
2022/09/05 12:11:54;;;;;;;2.60;1.45;;;27.00;99.90;;;;;;5043704;28;20141;-59
2022/09/05 12:14:45;;;;;;;3.33;1.38;;;26.80;99.90;;;;;;5049437;28;20036;-58
2022/09/05 12:17:26;;;;;;;5.45;1.48;;;26.80;99.90;;;;;;5040107;28;20044;-59
2022/09/05 12:20:00;;;;;;;4.72;1.27;;;26.80;99.90;;;;;;5038807;28;20552;-59
2022/09/05 12:22:34;;;;;;;1.50;1.33;;;26.80;99.90;;;;;;5047759;28;20040;-59
2022/09/05 12:25:22;;;;;;;2.08;1.50;;;26.80;99.90;;;;;;5044730;28;20029;-60
2022/09/05 12:27:53;;;;;;;4.43;1.65;;;26.80;99.90;;;;;;5046465;28;20040;-59
2022/09/05 12:30:40;;;;;;;4.50;1.40;;;26.70;99.90;;;;;;5037061;28;20035;-60
2022/09/05 12:33:30;;;;;;;2.38;1.50;;;26.80;99.90;;;;;;5043782;28;20040;-59
2022/09/05 12:36:34;;;;;;;2.60;1.48;;;26.80;99.90;;;;;;5045021;28;20399;-60
2022/09/05 12:39:11;;;;;;;3.10;1.30;;;27.00;99.90;;;;;;5029297;28;20040;-60
2022/09/05 12:42:18;;;;;;;1.90;1.40;;;27.10;99.90;;;;;;5044179;28;20045;-58
2022/09/05 12:45:08;;;;;;;2.10;1.42;;;27.00;99.90;;;;;;5042274;28;20036;-59
2022/09/05 12:48:11;;;;;;;2.95;1.50;;;27.00;99.90;;;;;;5051681;28;20574;-59
2022/09/05 12:50:45;;;;;;;2.43;1.47;;;27.00;99.90;;;;;;5039258;28;20033;-60
2022/09/05 12:53:19;;;;;;;3.83;1.50;;;26.90;99.90;;;;;;5043359;28;20476;-60
2022/09/05 12:56:02;;;;;;;2.05;1.30;;;26.90;99.90;;;;;;5042468;28;20100;-59
2022/09/05 12:58:34;;;;;;;2.65;1.40;;;27.10;99.90;;;;;;5036297;28;20036;-59
2022/09/05 13:01:11;;;;;;;4.15;1.15;;;27.00;99.90;;;;;;5044495;28;20032;-59
2022/09/05 13:03:46;;;;;;;2.67;1.27;;;27.00;99.90;;;;;;5045491;28;20041;-60
2022/09/05 13:06:21;;;;;;;3.38;1.30;;;27.00;99.90;;;;;;5036862;28;20167;-58
2022/09/05 13:08:50;;;;;;;3.53;1.40;;;27.00;99.90;;;;;;5045064;28;20041;-60
2022/09/05 13:11:20;;;;;;;3.58;1.50;;;27.20;99.90;;;;;;5041323;28;20123;-61
2022/09/05 13:14:11;;;;;;;1.88;1.30;;;27.10;99.90;;;;;;5042752;28;20120;-58
2022/09/05 13:16:41;;;;;;;3.83;1.60;;;27.20;99.90;;;;;;5043517;28;20279;-57
2022/09/05 13:19:24;;;;;;;4.68;1.45;;;27.40;99.90;;;;;;5040411;28;20527;-57
2022/09/05 13:21:56;;;;;;;2.78;1.38;;;27.40;99.90;;;;;;5038451;28;20030;-59
2022/09/05 13:24:33;;;;;;;5.25;1.52;;;27.20;99.90;;;;;;5044321;28;20116;-58
2022/09/05 13:27:26;;;;;;;2.35;1.20;;;27.20;99.90;;;;;;5036371;28;20037;-57
2022/09/05 13:29:57;;;;;;;3.28;1.30;;;27.20;99.90;;;;;;5041093;28;20036;-58
2022/09/05 13:32:32;;;;;;;6.72;1.48;;;27.10;99.90;;;;;;5042009;28;20063;-56
2022/09/05 13:35:23;;;;;;;3.17;1.00;;;27.10;99.90;;;;;;5043794;28;20086;-57
2022/09/05 13:38:03;;;;;;;6.07;1.40;;;27.20;99.90;;;;;;5040728;28;20768;-58
2022/09/05 13:40:41;;;;;;;3.92;1.33;;;27.40;99.90;;;;;;5045478;28;20450;-59
2022/09/05 13:43:20;;;;;;;3.15;1.40;;;27.40;99.90;;;;;;5043234;28;20312;-59
2022/09/05 13:46:02;;;;;;;3.83;1.50;;;27.50;99.90;;;;;;5040558;28;20032;-59
2022/09/05 13:49:09;;;;;;;1.60;1.20;;;27.60;99.90;;;;;;5043284;28;20507;-58
2022/09/05 13:51:39;;;;;;;4.85;1.27;;;27.60;99.90;;;;;;5034474;28;20040;-57
2022/09/05 13:54:07;;;;;;;1.58;1.20;;;27.50;99.90;;;;;;5039245;28;20136;-59
2022/09/05 13:56:45;;;;;;;3.83;1.30;;;27.60;99.90;;;;;;5040151;28;20025;-59
2022/09/05 13:59:13;;;;;;;1.42;1.20;;;27.60;99.90;;;;;;5040779;28;20041;-58
2022/09/05 14:02:17;;;;;;;1.95;1.42;;;27.60;99.90;;;;;;5036280;28;20033;-58
2022/09/05 14:05:01;;;;;;;7.75;1.35;;;27.50;99.90;;;;;;5048322;28;20040;-59
2022/09/05 14:07:45;;;;;;;2.03;1.10;;;27.50;99.90;;;;;;5034408;28;20063;-61
2022/09/05 14:10:18;;;;;;;1.70;1.20;;;27.50;99.90;;;;;;5042933;28;20029;-58